Time;durP1;ratioP1;P1;durP2;ratioP2;P2;SDS_P1;SDS_P2;PMS_P1;PMS_P2;Temp;Humidity;BMP_temperature;BMP_pressure;BME280_temperature;BME280_humidity;BME280_pressure;Samples;Min_cycle;Max_cycle;Signal;HPM_P1;HPM_P2
2022/07/18 00:03:54;;;;;;;8.68;6.45;;;;;;;17.33;59.13;102383.22;10416415;28;20092;-70
2022/07/18 00:08:55;;;;;;;9.68;6.70;;;;;;;17.34;59.47;102382.16;10416445;28;20362;-70
2022/07/18 00:13:55;;;;;;;13.38;5.85;;;;;;;17.32;59.83;102381.50;10415791;28;20034;-70
2022/07/18 00:18:58;;;;;;;8.68;6.07;;;;;;;17.24;59.58;102358.97;10398060;28;20065;-70
2022/07/18 00:23:58;;;;;;;8.35;5.57;;;;;;;17.24;60.13;102372.66;10397967;28;20037;-72
2022/07/18 00:28:58;;;;;;;15.15;6.35;;;;;;;17.22;60.78;102372.84;10414440;28;20037;-70
2022/07/18 00:33:59;;;;;;;7.13;6.43;;;;;;;17.12;61.34;102358.72;10398572;28;20095;-71
2022/07/18 00:39:00;;;;;;;6.47;5.13;;;;;;;17.12;61.13;102372.41;10397889;28;20473;-70
2022/07/18 00:44:00;;;;;;;9.70;6.90;;;;;;;17.05;61.20;102374.28;10397860;28;20114;-71
2022/07/18 00:49:01;;;;;;;10.85;6.55;;;;;;;16.98;62.18;102359.72;10398173;28;20405;-71
2022/07/18 00:54:03;;;;;;;10.65;6.32;;;;;;;16.98;61.56;102370.69;10415764;28;20075;-71
2022/07/18 00:59:03;;;;;;;8.35;6.25;;;;;;;16.87;61.75;102366.63;10397365;28;20053;-70
2022/07/18 01:04:04;;;;;;;9.93;5.47;;;;;;;16.89;62.02;102359.06;10398629;28;20061;-70
2022/07/18 01:09:04;;;;;;;13.70;6.55;;;;;;;16.85;61.98;102350.41;10418415;28;20045;-71
2022/07/18 01:14:05;;;;;;;9.80;5.68;;;;;;;16.77;62.48;102341.53;10420869;28;20486;-70
2022/07/18 01:19:05;;;;;;;19.70;6.82;;;;;;;16.78;62.68;102344.03;10408718;28;20044;-72
2022/07/18 01:24:06;;;;;;;8.90;6.60;;;;;;;16.74;62.95;102356.41;10428159;28;20041;-72
2022/07/18 01:29:06;;;;;;;7.97;5.72;;;;;;;16.63;62.62;102346.06;10422849;28;20113;-70
2022/07/18 01:34:08;;;;;;;14.10;7.68;;;;;;;16.58;63.25;102348.56;10404381;28;20061;-70
2022/07/18 01:39:09;;;;;;;11.75;7.28;;;;;;;16.56;64.35;102347.91;10404166;28;20485;-70
2022/07/18 01:44:09;;;;;;;10.77;6.90;;;;;;;16.53;64.16;102357.38;10389522;28;20030;-71
2022/07/18 01:49:10;;;;;;;10.18;5.90;;;;;;;16.49;63.97;102347.88;10421399;28;20045;-70
2022/07/18 01:54:10;;;;;;;8.07;6.97;;;;;;;16.43;64.16;102341.34;10404782;28;20049;-72
2022/07/18 01:59:11;;;;;;;12.75;6.75;;;;;;;16.41;65.49;102340.69;10457729;28;20053;-70
2022/07/18 02:04:11;;;;;;;19.95;7.25;;;;;;;16.38;65.71;102329.31;10445128;28;20437;-71
2022/07/18 02:09:12;;;;;;;9.63;6.03;;;;;;;16.34;66.50;102326.13;10445878;28;20025;-71
2022/07/18 02:14:13;;;;;;;8.68;7.35;;;;;;;16.33;66.37;102320.84;10462066;28;20049;-74
2022/07/18 02:19:13;;;;;;;17.83;6.00;;;;;;;16.22;65.38;102316.81;10446356;28;20041;-73
2022/07/18 02:24:14;;;;;;;8.60;6.40;;;;;;;16.14;65.92;102306.84;10427546;28;20040;-73
2022/07/18 02:29:14;;;;;;;8.07;5.65;;;;;;;16.11;67.32;102312.72;10442431;28;20045;-74
2022/07/18 02:34:14;;;;;;;9.18;6.32;;;;;;;16.11;66.70;102301.78;10460982;28;20167;-74
2022/07/18 02:39:15;;;;;;;9.38;6.82;;;;;;;16.10;67.27;102293.81;10443662;28;20029;-74
2022/07/18 02:44:16;;;;;;;15.95;6.57;;;;;;;16.10;70.25;102291.06;10444598;28;20457;-73
2022/07/18 02:49:28;;;;;;;9.68;6.30;;;;;;;16.15;71.37;102292.16;10443731;28;20045;-74
2022/07/18 02:54:29;;;;;;;9.93;5.78;;;;;;;16.06;69.63;102287.91;10460965;28;20033;-73
2022/07/18 02:59:30;;;;;;;4.72;4.07;;;;;;;16.02;70.30;102292.91;10401799;28;20034;-73
2022/07/18 03:04:31;;;;;;;12.55;5.97;;;;;;;16.04;70.70;102290.81;10419717;28;20034;-73
2022/07/18 03:09:32;;;;;;;9.18;6.25;;;;;;;16.01;69.86;102288.47;10401381;28;20033;-73
2022/07/18 03:14:33;;;;;;;6.90;5.78;;;;;;;15.94;68.47;102284.88;10419374;28;20045;-73
2022/07/18 03:19:33;;;;;;;8.32;5.38;;;;;;;15.92;69.19;102280.63;10400551;28;20025;-74
2022/07/18 03:24:34;;;;;;;11.63;6.68;;;;;;;15.92;68.57;102273.31;10417768;28;20061;-73
2022/07/18 03:29:35;;;;;;;12.10;6.68;;;;;;;15.95;68.99;102264.72;10401009;28;20117;-73
2022/07/18 03:34:35;;;;;;;11.18;5.55;;;;;;;16.04;69.38;102274.41;10385279;28;20040;-74
2022/07/18 03:39:35;;;;;;;7.32;5.38;;;;;;;16.14;69.20;102262.28;10383301;28;20103;-74
2022/07/18 03:44:36;;;;;;;4.88;4.40;;;;;;;16.17;68.54;102264.63;10399986;28;20104;-74
2022/07/18 03:49:36;;;;;;;8.30;5.25;;;;;;;16.13;68.41;102260.59;10415721;28;20053;-74
2022/07/18 03:54:37;;;;;;;10.40;4.65;;;;;;;16.11;68.28;102249.03;10416540;28;20171;-73
2022/07/18 03:59:37;;;;;;;6.60;5.68;;;;;;;16.19;69.16;102243.41;10400285;28;20068;-73
2022/07/18 04:04:38;;;;;;;9.25;6.15;;;;;;;16.25;68.94;102246.16;10415751;28;20047;-73
2022/07/18 04:09:38;;;;;;;5.57;4.15;;;;;;;16.23;68.84;102247.41;10415010;28;20059;-74
2022/07/18 04:14:39;;;;;;;11.20;6.32;;;;;;;16.25;69.00;102239.88;10415505;28;20053;-73
2022/07/18 04:19:39;;;;;;;10.85;6.03;;;;;;;16.33;69.83;102242.41;10416456;28;20084;-73
2022/07/18 04:24:40;;;;;;;9.15;4.95;;;;;;;16.39;70.18;102244.34;10416016;28;20057;-74
2022/07/18 04:29:42;;;;;;;7.22;4.38;;;;;;;16.45;70.54;102238.06;10416219;28;20136;-74
2022/07/18 04:34:42;;;;;;;6.90;4.80;;;;;;;16.54;73.45;102235.16;10401467;28;20037;-74
2022/07/18 04:39:43;;;;;;;5.78;4.20;;;;;;;16.60;74.96;102231.59;10415474;28;20515;-73
2022/07/18 04:44:43;;;;;;;5.20;4.60;;;;;;;16.67;77.71;102240.66;10415346;28;20108;-73
2022/07/18 04:49:44;;;;;;;5.85;4.43;;;;;;;16.81;77.58;102247.88;10398084;28;20057;-73
2022/07/18 04:54:44;;;;;;;7.65;5.13;;;;;;;16.99;75.54;102244.56;10423834;28;20073;-73
2022/07/18 04:59:45;;;;;;;8.30;4.35;;;;;;;17.77;76.70;102239.38;10423261;28;20120;-75
2022/07/18 05:04:46;;;;;;;10.38;5.10;;;;;;;18.85;72.48;102255.25;10410869;28;20087;-73
2022/07/18 05:09:46;;;;;;;6.13;3.80;;;;;;;19.67;69.53;102252.59;10423528;28;20474;-74
2022/07/18 05:14:47;;;;;;;4.93;3.92;;;;;;;20.31;67.49;102245.78;10422276;28;20037;-73
2022/07/18 05:19:47;;;;;;;7.88;4.15;;;;;;;20.85;65.71;102234.97;10423375;28;20120;-73
2022/07/18 05:24:48;;;;;;;9.93;4.20;;;;;;;21.46;63.25;102241.25;10423879;28;20076;-73
2022/07/18 05:29:49;;;;;;;9.55;3.55;;;;;;;21.65;61.34;102242.00;10422739;28;20544;-73
2022/07/18 05:34:50;;;;;;;6.15;3.92;;;;;;;21.87;61.45;102232.03;10425006;28;20468;-73
2022/07/18 05:39:51;;;;;;;4.60;3.85;;;;;;;22.57;60.28;102233.00;10422702;28;20192;-73
2022/07/18 05:44:51;;;;;;;7.03;3.45;;;;;;;23.22;58.13;102221.53;10405651;28;20033;-73
2022/07/18 05:49:52;;;;;;;11.20;3.50;;;;;;;23.83;56.57;102218.91;10422025;28;20120;-73
2022/07/18 05:54:53;;;;;;;4.20;3.90;;;;;;;24.14;52.80;102209.13;10421168;28;20053;-73
2022/07/18 05:59:53;;;;;;;7.78;3.05;;;;;;;24.43;50.69;102206.19;10421919;28;20120;-73
2022/07/18 06:04:54;;;;;;;5.78;3.38;;;;;;;24.90;49.24;102211.97;10421138;28;20388;-73
2022/07/18 06:09:54;;;;;;;7.03;3.90;;;;;;;25.33;45.27;102217.63;10419908;28;20033;-73
2022/07/18 06:14:55;;;;;;;7.70;3.70;;;;;;;25.53;43.76;102203.94;10419855;28;20033;-74
2022/07/18 06:19:56;;;;;;;6.78;3.67;;;;;;;25.93;44.39;102202.53;10421229;28;20056;-74
2022/07/18 06:24:56;;;;;;;6.40;3.80;;;;;;;25.70;41.55;102199.03;10420733;28;20037;-73
2022/07/18 06:29:58;;;;;;;3.65;3.35;;;;;;;25.74;42.80;102200.16;10419257;28;20529;-73
2022/07/18 06:34:59;;;;;;;5.28;3.42;;;;;;;26.33;42.75;102196.34;10420185;28;20056;-73
2022/07/18 06:39:59;;;;;;;7.05;3.83;;;;;;;26.64;39.90;102196.44;10420063;28;20041;-74
2022/07/18 06:45:00;;;;;;;6.30;3.67;;;;;;;27.14;39.66;102194.88;10402410;28;20033;-74
2022/07/18 06:50:01;;;;;;;7.95;3.63;;;;;;;27.32;38.32;102202.66;10417887;28;20094;-74
2022/07/18 06:55:01;;;;;;;3.00;2.75;;;;;;;27.79;38.18;102195.09;10419306;28;20056;-74
2022/07/18 07:00:06;;;;;;;14.40;4.30;;;;;;;28.26;36.06;102200.19;10418505;28;20029;-74
2022/07/18 07:05:07;;;;;;;3.58;2.92;;;;;;;28.64;36.62;102188.63;10402337;28;20026;-74
2022/07/18 07:10:08;;;;;;;5.82;3.40;;;;;;;28.95;35.69;102190.06;10416760;28;20397;-74
2022/07/18 07:15:09;;;;;;;7.85;3.22;;;;;;;29.36;36.22;102181.38;10400502;28;20036;-74
2022/07/18 07:20:10;;;;;;;6.88;3.28;;;;;;;29.63;33.97;102188.38;10400056;28;20025;-74
2022/07/18 07:25:11;;;;;;;5.93;2.90;;;;;;;29.76;35.20;102176.50;10418885;28;20040;-74
2022/07/18 07:30:12;;;;;;;6.55;2.53;;;;;;;30.57;36.63;102176.63;10399655;28;20033;-74
2022/07/18 07:35:14;;;;;;;5.20;2.45;;;;;;;30.68;33.14;102177.28;10418599;28;20072;-74
2022/07/18 07:40:15;;;;;;;7.22;2.85;;;;;;;30.83;31.75;102187.44;10418265;28;20445;-74
2022/07/18 07:45:16;;;;;;;4.28;2.50;;;;;;;31.24;32.24;102177.22;10399695;28;20033;-74
2022/07/18 07:50:17;;;;;;;5.25;3.60;;;;;;;31.80;32.42;102183.75;10414997;28;20037;-74
2022/07/18 07:55:25;;;;;;;12.27;5.13;;;;;;;32.23;34.01;102175.06;10398767;28;20513;-74
2022/07/18 08:00:26;;;;;;;25.65;4.35;;;;;;;33.24;34.09;102172.94;10399243;28;20083;-75
2022/07/18 08:05:32;;;;;;;9.68;3.85;;;;;;;32.83;33.41;102168.34;10399095;28;20062;-75
2022/07/18 08:10:32;;;;;;;5.80;4.05;;;;;;;32.86;33.58;102167.69;10382622;28;20537;-74
2022/07/18 08:15:33;;;;;;;8.43;3.40;;;;;;;33.31;35.12;102162.94;10415928;28;20083;-75
2022/07/18 08:20:34;;;;;;;3.28;3.05;;;;;;;33.71;35.41;102150.91;10415727;28;20044;-75
2022/07/18 08:25:37;;;;;;;5.95;3.25;;;;;;;34.28;34.76;102156.53;10416149;28;20075;-75
2022/07/18 08:30:38;;;;;;;4.82;2.90;;;;;;;34.00;33.41;102158.75;10398681;28;20041;-75
2022/07/18 08:35:50;;;;;;;13.77;3.03;;;;;;;34.07;33.08;102161.13;10398083;28;20052;-75
2022/07/18 08:40:53;;;;;;;4.20;3.53;;;;;;;34.19;34.12;102152.88;10415743;28;20045;-75
2022/07/18 08:45:58;;;;;;;8.77;3.22;;;;;;;34.49;34.36;102149.09;10398179;28;20386;-75
2022/07/18 08:51:00;;;;;;;5.60;2.80;;;;;;;34.76;32.01;102158.38;10397896;28;20034;-75
2022/07/18 08:56:51;;;;;;;6.82;2.35;;;;;;;34.87;29.58;102154.06;10397641;28;20668;-74
2022/07/18 09:01:55;;;;;;;10.70;2.53;;;;;;;35.06;31.74;102150.91;10415950;28;20115;-75
2022/07/18 09:07:00;;;;;;;7.03;3.15;;;;;;;35.69;31.16;102148.41;10414435;28;20029;-75
2022/07/18 09:12:05;;;;;;;3.78;2.22;;;;;;;36.07;30.98;102156.00;10413517;28;20036;-75
2022/07/18 09:17:28;;;;;;;;;;;;;;;35.49;29.36;102151.97;10398506;28;20037;-75
2022/07/18 09:22:36;;;;;;;5.00;2.78;;;;;;;35.79;29.52;102153.66;10415659;28;19927;-75
2022/07/18 09:39:19;;;;;;;2.25;1.98;;;;;;;37.57;27.97;102138.19;10264458;28;20067;-75
2022/07/18 09:44:29;;;;;;;4.95;2.60;;;;;;;37.59;29.10;102131.00;10406215;28;20112;-75
2022/07/18 09:49:31;;;;;;;10.45;2.90;;;;;;;37.67;29.07;102127.22;10404347;28;20048;-75
2022/07/18 09:55:05;;;;;;;4.40;3.25;;;;;;;37.56;28.02;102125.22;10403830;28;20034;-74
2022/07/18 10:00:06;;;;;;;3.97;3.05;;;;;;;37.77;28.28;102130.75;10420408;28;20061;-75
2022/07/18 10:11:49;;;;;;;10.10;2.92;;;;;;;38.19;25.59;102128.47;10295275;28;20118;-75
2022/07/18 10:16:49;;;;;;;2.55;2.35;;;;;;;38.60;27.27;102113.16;10310964;28;20034;-75
2022/07/18 10:21:50;;;;;;;4.35;3.15;;;;;;;38.81;26.67;102118.59;10403071;28;20033;-75
2022/07/18 10:27:26;;;;;;;12.55;2.80;;;;;;;39.04;26.44;102118.84;10419442;28;20025;-75
2022/07/18 10:32:33;;;;;;;3.63;2.45;;;;;;;39.24;24.85;102116.13;10381458;28;20041;-75
2022/07/18 10:37:34;;;;;;;2.55;2.35;;;;;;;39.46;25.15;102124.00;10419212;28;20148;-75
2022/07/18 10:42:35;;;;;;;8.73;2.60;;;;;;;39.35;24.38;102117.25;10402374;28;20136;-75
2022/07/18 10:47:35;;;;;;;2.80;2.40;;;;;;;39.05;23.80;102117.66;10401503;28;20389;-75
2022/07/18 10:52:36;;;;;;;5.47;2.77;;;;;;;38.84;24.23;102106.59;10401292;28;20033;-75
2022/07/18 10:57:41;;;;;;;5.07;2.10;;;;;;;38.93;23.69;102108.41;10420150;28;20286;-75
2022/07/18 11:02:46;;;;;;;4.65;2.72;;;;;;;39.08;21.28;102105.59;10417999;28;20033;-75
2022/07/18 11:07:59;;;;;;;2.67;2.47;;;;;;;38.56;20.93;102106.56;10418669;28;20083;-75
2022/07/18 11:13:34;;;;;;;9.40;3.05;;;;;;;39.04;22.14;102099.03;10419565;28;20036;-75
2022/07/18 11:18:42;;;;;;;4.57;2.78;;;;;;;39.33;22.26;102099.78;10418782;28;20116;-75
2022/07/18 11:23:46;;;;;;;3.22;3.00;;;;;;;39.38;21.53;102096.69;10401642;28;20492;-75
2022/07/18 11:28:48;;;;;;;3.17;2.90;;;;;;;39.48;21.93;102089.63;10416857;28;20084;-75
2022/07/18 11:33:58;;;;;;;3.08;2.78;;;;;;;39.75;20.48;102090.69;10400117;28;20045;-75
2022/07/18 11:39:01;;;;;;;5.00;3.58;;;;;;;39.84;21.97;102082.00;10400674;28;20484;-75
2022/07/18 11:44:02;;;;;;;2.80;2.60;;;;;;;39.13;20.29;102078.19;10400845;28;20116;-75
2022/07/18 11:49:04;;;;;;;6.97;3.55;;;;;;;38.56;17.78;102066.94;10416912;28;20041;-74
2022/07/18 11:54:05;;;;;;;3.88;3.55;;;;;;;38.80;20.85;102067.97;10399117;28;20049;-75
2022/07/18 11:59:05;;;;;;;3.67;2.92;;;;;;;38.82;17.07;102068.44;10397851;28;20099;-75
2022/07/18 12:04:06;;;;;;;3.20;2.88;;;;;;;38.83;19.08;102073.78;10397658;28;20037;-75
2022/07/18 12:14:54;;;;;;;3.00;2.83;;;;;;;38.32;16.12;102061.34;10249153;29;20047;-74
2022/07/18 12:20:13;;;;;;;7.80;3.22;;;;;;;38.23;18.65;102053.03;10394997;28;20041;-74
2022/07/18 12:25:16;;;;;;;6.20;3.38;;;;;;;38.64;18.45;102047.31;10414876;28;20029;-75
2022/07/18 12:30:20;;;;;;;2.72;2.42;;;;;;;38.49;16.76;102044.09;10396998;28;20104;-74
2022/07/18 12:35:33;;;;;;;3.28;2.97;;;;;;;38.30;18.32;102041.09;10413107;28;20040;-74
2022/07/18 12:41:00;;;;;;;2.40;2.20;;;;;;;38.08;19.55;102046.13;10396637;28;20069;-74
2022/07/18 12:46:03;;;;;;;1.80;1.70;;;;;;;38.44;19.35;102035.88;10414813;28;20041;-74
2022/07/18 12:51:11;;;;;;;3.30;2.55;;;;;;;38.67;18.81;102043.75;10414767;28;20038;-74
2022/07/18 12:56:14;;;;;;;3.33;2.97;;;;;;;39.49;20.37;102031.75;10368558;28;1275598;-74
2022/07/18 13:01:15;;;;;;;2.38;2.28;;;;;;;38.93;20.14;102027.13;10414310;28;20041;-74
2022/07/18 13:06:16;;;;;;;2.80;2.47;;;;;;;39.51;20.58;102021.69;10397683;28;20030;-75
2022/07/18 13:11:16;;;;;;;3.63;2.67;;;;;;;39.88;20.85;102021.31;10414384;28;20039;-74
2022/07/18 13:16:23;;;;;;;2.65;2.45;;;;;;;40.14;20.82;102017.81;10404961;28;20091;-74
2022/07/18 13:21:24;;;;;;;2.75;2.55;;;;;;;40.16;20.66;102011.78;10423468;28;20381;-74
2022/07/18 13:26:25;;;;;;;3.22;2.95;;;;;;;40.14;20.93;102014.13;10405735;28;20029;-74
2022/07/18 13:31:26;;;;;;;2.67;2.47;;;;;;;39.68;20.48;102002.59;10389920;28;20095;-75
2022/07/18 13:36:26;;;;;;;3.28;2.40;;;;;;;40.11;21.32;101998.72;10406209;28;20034;-74
2022/07/18 13:41:29;;;;;;;3.22;2.40;;;;;;;40.34;21.66;101990.25;10406312;28;20032;-74
2022/07/18 13:46:30;;;;;;;2.78;2.58;;;;;;;40.12;21.57;101985.34;10419794;28;20049;-74
2022/07/18 13:51:31;;;;;;;2.60;1.92;;;;;;;39.98;21.38;101988.69;10420525;28;20041;-74
2022/07/18 13:56:31;;;;;;;5.28;2.35;;;;;;;39.66;20.97;101985.94;10420347;28;20054;-74
2022/07/18 14:01:32;;;;;;;3.50;2.47;;;;;;;39.65;21.45;101992.81;10403926;28;20489;-74
2022/07/18 14:06:34;;;;;;;4.83;3.03;;;;;;;39.62;22.79;101979.38;10403725;28;20060;-74
2022/07/18 14:11:35;;;;;;;2.65;2.45;;;;;;;39.53;21.73;101975.94;10404016;28;20681;-74
2022/07/18 14:16:37;;;;;;;2.33;2.15;;;;;;;39.22;21.02;101962.66;10421747;28;20120;-74
2022/07/18 14:21:38;;;;;;;4.07;2.67;;;;;;;38.81;21.11;101976.19;10403470;28;20025;-74
2022/07/18 14:26:38;;;;;;;2.00;1.90;;;;;;;38.12;19.41;101967.03;10403352;28;20469;-74
2022/07/18 14:31:39;;;;;;;1.88;1.77;;;;;;;37.80;20.98;101966.06;10419252;28;20067;-74
2022/07/18 14:36:43;;;;;;;2.45;2.25;;;;;;;37.92;22.08;101968.88;10388551;28;20519;-74
2022/07/18 14:41:45;;;;;;;2.63;2.40;;;;;;;37.46;21.46;101962.63;10402356;28;20091;-74
2022/07/18 14:46:46;;;;;;;5.00;2.97;;;;;;;37.66;21.97;101960.81;10418273;28;20044;-74
2022/07/18 14:51:47;;;;;;;3.75;2.65;;;;;;;37.78;22.34;101962.78;10401434;28;20037;-74
2022/07/18 14:56:47;;;;;;;8.10;2.55;;;;;;;37.82;21.90;101963.72;10419113;28;20058;-74
2022/07/18 15:01:48;;;;;;;2.33;2.08;;;;;;;37.68;21.92;101947.13;10402464;28;20171;-74
2022/07/18 15:06:48;;;;;;;3.10;2.83;;;;;;;37.60;22.49;101954.59;10402406;28;20152;-74
2022/07/18 15:11:49;;;;;;;1.92;1.83;;;;;;;37.34;22.03;101952.16;10402098;28;20270;-74
2022/07/18 15:16:49;;;;;;;2.63;2.33;;;;;;;37.31;22.79;101949.22;10418818;28;20044;-74
2022/07/18 15:21:49;;;;;;;12.17;2.70;;;;;;;37.19;22.44;101945.22;10418576;28;20033;-74
2022/07/18 15:26:50;;;;;;;4.72;2.92;;;;;;;36.72;21.61;101945.66;10400564;28;20286;-74
2022/07/18 15:31:50;;;;;;;2.92;2.72;;;;;;;36.33;22.29;101938.63;10417533;28;20034;-74
2022/07/18 15:36:51;;;;;;;4.87;2.80;;;;;;;36.49;23.54;101925.50;10417237;28;20473;-74
2022/07/18 15:41:51;;;;;;;2.40;2.30;;;;;;;36.56;23.77;101919.28;10400315;28;20365;-74
2022/07/18 15:46:51;;;;;;;7.83;2.90;;;;;;;36.65;23.86;101925.66;10401799;28;20049;-74
2022/07/18 15:51:52;;;;;;;2.13;1.93;;;;;;;36.51;23.70;101917.53;10385368;28;20738;-74
2022/07/18 15:56:52;;;;;;;8.57;2.87;;;;;;;36.42;23.92;101913.13;10417919;28;20350;-74
2022/07/18 16:01:54;;;;;;;2.07;1.97;;;;;;;36.17;23.48;101906.63;10416824;28;20384;-74
2022/07/18 16:06:56;;;;;;;2.80;2.42;;;;;;;35.92;23.56;101905.69;10415032;28;20626;-73
2022/07/18 16:11:58;;;;;;;2.92;2.58;;;;;;;35.76;24.48;101905.50;10418206;28;20076;-74
2022/07/18 16:17:00;;;;;;;2.97;2.77;;;;;;;35.40;23.82;101899.28;10416541;28;20041;-73
2022/07/18 16:22:00;;;;;;;2.85;2.65;;;;;;;35.25;24.17;101899.09;10416260;28;20289;-74
2022/07/18 16:27:01;;;;;;;2.25;2.15;;;;;;;34.85;24.08;101899.47;10415055;28;20394;-74
2022/07/18 16:32:01;;;;;;;3.22;2.67;;;;;;;34.18;25.06;101886.97;10417710;28;20038;-73
2022/07/18 16:37:01;;;;;;;3.40;2.40;;;;;;;33.63;24.73;101874.41;10399935;28;20041;-74
2022/07/18 16:42:02;;;;;;;8.15;2.97;;;;;;;33.29;24.65;101883.66;10415858;28;20639;-74
2022/07/18 16:47:04;;;;;;;2.80;2.60;;;;;;;32.90;24.96;101874.13;10397032;28;20120;-74
2022/07/18 16:52:05;;;;;;;2.88;2.67;;;;;;;32.65;24.41;101870.91;10381832;28;20076;-74
2022/07/18 16:57:06;;;;;;;4.15;2.83;;;;;;;32.43;25.17;101862.56;10415881;28;20099;-73
2022/07/18 17:02:06;;;;;;;5.90;3.35;;;;;;;32.30;25.11;101857.88;10397757;28;20124;-73
2022/07/18 17:07:07;;;;;;;3.97;3.20;;;;;;;32.18;25.32;101850.88;10417137;28;20072;-74
2022/07/18 17:12:08;;;;;;;3.75;3.33;;;;;;;31.88;26.65;101848.84;10414861;28;20084;-73
2022/07/18 17:17:11;;;;;;;3.65;3.22;;;;;;;31.81;26.67;101859.66;10397497;28;20046;-73
2022/07/18 17:22:12;;;;;;;4.70;2.58;;;;;;;31.47;27.66;101852.66;10398479;28;20034;-73
2022/07/18 17:27:14;;;;;;;4.03;3.57;;;;;;;31.25;28.04;101842.22;10398582;28;20033;-73
2022/07/18 17:32:14;;;;;;;5.82;2.92;;;;;;;31.08;28.67;101842.91;10396803;28;20324;-73
2022/07/18 17:37:16;;;;;;;5.97;3.67;;;;;;;30.84;30.65;101845.09;10398297;28;20075;-73
2022/07/18 17:42:17;;;;;;;3.72;2.95;;;;;;;30.65;30.80;101845.19;10397503;28;20040;-74
2022/07/18 17:47:18;;;;;;;3.08;2.45;;;;;;;30.47;30.69;101838.53;10414576;28;20366;-73
2022/07/18 17:52:18;;;;;;;4.70;3.00;;;;;;;30.35;31.80;101837.09;10414875;28;20068;-73
2022/07/18 17:57:19;;;;;;;5.95;2.83;;;;;;;30.25;31.09;101844.81;10415815;28;20080;-73
2022/07/18 18:02:20;;;;;;;4.38;3.08;;;;;;;30.11;31.61;101836.41;10420922;28;20497;-73
2022/07/18 18:07:20;;;;;;;3.10;2.75;;;;;;;30.01;31.67;101843.00;10421576;28;20033;-73
2022/07/18 18:12:21;;;;;;;2.83;2.38;;;;;;;29.88;32.10;101847.41;10422005;28;20112;-73
2022/07/18 18:17:21;;;;;;;3.88;3.05;;;;;;;29.75;31.94;101844.56;10404140;28;20504;-73
2022/07/18 18:22:24;;;;;;;4.53;4.13;;;;;;;29.56;31.94;101847.34;10404631;28;20033;-73
2022/07/18 18:27:25;;;;;;;2.72;2.53;;;;;;;29.40;32.15;101843.97;10420004;28;20484;-73
2022/07/18 18:32:26;;;;;;;4.20;3.85;;;;;;;29.27;32.15;101845.56;10403297;28;20033;-73
2022/07/18 18:37:27;;;;;;;8.07;3.20;;;;;;;29.24;32.53;101851.72;10422866;28;20041;-80
2022/07/18 18:42:27;;;;;;;5.57;3.72;;;;;;;29.14;32.12;101846.31;10418368;28;20025;-79
2022/07/18 18:47:29;;;;;;;3.17;2.88;;;;;;;29.08;31.80;101836.34;10420704;28;20069;-77
2022/07/18 18:52:30;;;;;;;8.15;3.03;;;;;;;28.98;31.93;101843.69;10419334;28;20037;-77
2022/07/18 18:57:30;;;;;;;3.47;2.80;;;;;;;28.89;32.30;101833.50;10402362;28;20068;-77
2022/07/18 19:02:30;;;;;;;4.53;3.30;;;;;;;28.77;32.64;101827.53;10417908;28;20037;-77
2022/07/18 19:07:31;;;;;;;7.13;3.10;;;;;;;28.67;32.94;101831.25;10420540;28;20049;-76
2022/07/18 19:12:31;;;;;;;5.50;3.57;;;;;;;28.58;32.56;101833.88;10418054;28;20037;-76
2022/07/18 19:17:32;;;;;;;4.40;3.70;;;;;;;28.41;32.84;101827.94;10401077;28;20357;-76
2022/07/18 19:22:32;;;;;;;12.05;3.53;;;;;;;28.16;33.11;101834.59;10401170;28;20083;-82
2022/07/18 19:27:32;;;;;;;5.50;3.63;;;;;;;27.98;33.20;101828.63;10417075;28;20034;-78
2022/07/18 19:32:33;;;;;;;14.57;3.80;;;;;;;27.77;33.83;101829.94;10401323;28;20619;-79
2022/07/18 19:37:33;;;;;;;4.72;2.70;;;;;;;27.54;33.79;101835.09;10420603;28;20286;-79
2022/07/18 19:42:34;;;;;;;5.90;3.13;;;;;;;27.30;33.89;101826.59;10417427;28;20037;-80
2022/07/18 19:47:34;;;;;;;145.68;63.03;;;;;;;26.97;34.02;101822.59;10417342;28;20132;-73
2022/07/18 19:52:34;;;;;;;16.58;10.65;;;;;;;26.75;34.22;101827.72;10417910;28;20044;-73
2022/07/18 19:57:35;;;;;;;6.43;4.80;;;;;;;26.49;34.24;101816.69;10417956;28;20111;-72
2022/07/18 20:02:35;;;;;;;3.57;3.23;;;;;;;26.25;34.76;101835.03;10416891;28;20286;-72
2022/07/18 20:07:36;;;;;;;3.35;3.13;;;;;;;26.01;35.09;101830.09;10416802;28;20353;-73
2022/07/18 20:12:36;;;;;;;5.70;4.45;;;;;;;25.83;35.24;101837.03;10400564;28;20048;-72
2022/07/18 20:17:37;;;;;;;5.10;4.10;;;;;;;25.66;35.35;101819.81;10398966;28;20095;-73
2022/07/18 20:22:37;;;;;;;9.90;4.40;;;;;;;25.51;36.50;101828.94;10415463;28;20465;-72
2022/07/18 20:27:37;;;;;;;4.50;4.03;;;;;;;25.40;36.40;101821.69;10416176;28;20123;-72
2022/07/18 20:32:38;;;;;;;5.38;4.88;;;;;;;25.22;36.08;101825.84;10415063;28;20065;-72
2022/07/18 20:37:48;;;;;;;4.68;4.13;;;;;;;25.12;36.88;101823.00;10400123;28;20029;-73
2022/07/18 20:42:50;;;;;;;7.35;4.47;;;;;;;25.00;36.69;101817.69;10403015;28;20060;-72
2022/07/18 20:47:51;;;;;;;5.72;4.47;;;;;;;24.96;36.78;101822.13;10402431;28;20473;-70
2022/07/18 20:52:54;;;;;;;10.15;4.72;;;;;;;24.92;36.67;101815.44;10399287;28;20030;-70
2022/07/18 20:57:54;;;;;;;11.55;4.80;;;;;;;24.81;36.88;101826.50;10416442;28;20090;-70
2022/07/18 21:02:54;;;;;;;8.95;5.15;;;;;;;24.74;37.01;101812.06;10415234;28;20481;-70
2022/07/18 21:07:55;;;;;;;10.32;4.35;;;;;;;24.63;38.14;101813.09;10416724;28;20045;-70
2022/07/18 21:12:55;;;;;;;5.00;4.55;;;;;;;24.47;37.77;101805.81;10397711;28;20387;-70
2022/07/18 21:17:56;;;;;;;6.18;5.57;;;;;;;24.36;37.98;101818.75;10397611;28;20034;-69
2022/07/18 21:22:56;;;;;;;7.22;4.40;;;;;;;24.23;38.04;101819.25;10414988;28;20108;-69
2022/07/18 21:27:56;;;;;;;6.88;4.97;;;;;;;24.20;38.39;101815.06;10413799;28;20021;-69
2022/07/18 21:32:57;;;;;;;10.85;4.93;;;;;;;24.10;38.40;101820.53;10414958;28;20536;-69
2022/07/18 21:37:57;;;;;;;8.48;6.13;;;;;;;24.02;38.52;101813.53;10422992;28;20033;-70
2022/07/18 21:42:58;;;;;;;6.32;5.63;;;;;;;23.98;38.45;101822.66;10421341;28;20033;-70
2022/07/18 21:47:58;;;;;;;6.65;4.65;;;;;;;23.80;38.70;101818.34;10422334;28;20025;-70
2022/07/18 21:52:59;;;;;;;6.10;4.53;;;;;;;23.66;38.95;101820.69;10405025;28;20038;-70
2022/07/18 21:57:59;;;;;;;7.28;4.07;;;;;;;23.50;40.03;101816.97;10406825;28;20143;-73
2022/07/18 22:02:59;;;;;;;5.72;4.07;;;;;;;23.46;41.13;101815.81;10421582;28;20123;-73
2022/07/18 22:08:00;;;;;;;21.23;10.70;;;;;;;23.39;40.84;101821.56;10421603;28;20065;-73
2022/07/18 22:13:00;;;;;;;4.88;4.20;;;;;;;23.25;40.34;101808.41;10403204;28;20030;-73
2022/07/18 22:18:01;;;;;;;6.50;4.75;;;;;;;23.07;40.51;101812.34;10404290;28;20040;-73
2022/07/18 22:23:01;;;;;;;5.38;4.22;;;;;;;22.97;40.33;101813.94;10420818;28;20160;-73
2022/07/18 22:28:02;;;;;;;5.85;4.25;;;;;;;22.86;40.27;101805.75;10420276;28;20063;-73
2022/07/18 22:33:02;;;;;;;7.43;4.05;;;;;;;22.72;40.81;101808.91;10420532;28;20128;-73
2022/07/18 22:38:04;;;;;;;4.88;4.20;;;;;;;22.68;40.78;101795.84;10420521;28;20044;-73
2022/07/18 22:43:05;;;;;;;8.57;4.47;;;;;;;22.60;41.25;101802.66;10387196;28;20033;-73
2022/07/18 22:48:05;;;;;;;5.00;4.18;;;;;;;22.55;41.42;101793.47;10402366;28;20033;-73
2022/07/18 22:53:06;;;;;;;5.90;3.92;;;;;;;22.55;42.04;101790.72;10402662;28;20045;-73
2022/07/18 22:58:06;;;;;;;6.60;3.67;;;;;;;22.60;42.90;101796.31;10384963;28;20062;-73
2022/07/18 23:03:07;;;;;;;5.65;5.15;;;;;;;22.60;42.50;101780.56;10385871;28;20068;-73
2022/07/18 23:08:09;;;;;;;6.32;4.43;;;;;;;22.56;42.60;101784.94;10404531;28;20069;-73
2022/07/18 23:13:10;;;;;;;4.90;3.75;;;;;;;22.66;44.91;101778.72;10405312;28;20076;-73
2022/07/18 23:18:11;;;;;;;10.65;4.43;;;;;;;22.66;43.37;101779.56;10419976;28;20042;-73
2022/07/18 23:23:11;;;;;;;4.05;3.40;;;;;;;22.56;43.76;101781.34;10418699;28;20120;-73
2022/07/18 23:28:11;;;;;;;7.30;4.05;;;;;;;22.51;43.43;101785.69;10416862;28;20128;-73
2022/07/18 23:33:12;;;;;;;7.50;5.32;;;;;;;22.39;43.31;101786.91;10417608;28;20064;-73